Time;durP1;ratioP1;P1;durP2;ratioP2;P2;SDS_P1;SDS_P2;PMS_P1;PMS_P2;Temp;Humidity;BMP_temperature;BMP_pressure;BME280_temperature;BME280_humidity;BME280_pressure;Samples;Min_cycle;Max_cycle;Signal;HPM_P1;HPM_P2
2023/08/10 00:02:14;;;;;;;13.88;2.92;;;13.80;99.90;;;;;;5043142;28;20064;-67
2023/08/10 00:04:40;;;;;;;9.90;3.22;;;13.80;99.90;;;;;;5026614;28;20447;-68
2023/08/10 00:07:06;;;;;;;6.95;3.22;;;13.70;99.90;;;;;;5043920;28;20037;-69
2023/08/10 00:09:31;;;;;;;13.02;3.53;;;13.70;99.90;;;;;;5065999;28;20040;-66
2023/08/10 00:11:57;;;;;;;9.73;3.63;;;13.70;99.90;;;;;;5060324;28;20396;-67
2023/08/10 00:14:23;;;;;;;10.70;3.10;;;13.70;99.90;;;;;;5047332;28;20037;-68
2023/08/10 00:16:48;;;;;;;10.27;3.63;;;13.60;99.90;;;;;;5030644;28;20332;-69
2023/08/10 00:19:14;;;;;;;16.50;3.22;;;13.60;99.90;;;;;;5048572;28;20051;-67
2023/08/10 00:21:39;;;;;;;10.90;3.38;;;13.60;99.90;;;;;;5029711;28;20036;-67
2023/08/10 00:24:05;;;;;;;9.82;3.15;;;13.60;99.90;;;;;;5047002;28;20036;-69
2023/08/10 00:26:31;;;;;;;13.57;3.28;;;13.50;99.90;;;;;;5046332;28;20037;-68
2023/08/10 00:28:56;;;;;;;11.63;3.22;;;13.50;99.90;;;;;;5055931;28;20029;-69
2023/08/10 00:31:22;;;;;;;12.98;3.10;;;13.50;99.90;;;;;;5061122;28;20044;-68
2023/08/10 00:33:48;;;;;;;12.48;3.30;;;13.50;99.90;;;;;;5061624;28;20037;-70
2023/08/10 00:36:14;;;;;;;9.48;3.05;;;13.50;99.90;;;;;;5066742;28;20036;-70
2023/08/10 00:38:40;;;;;;;12.50;3.45;;;13.40;99.90;;;;;;5050116;28;20093;-69
2023/08/10 00:41:06;;;;;;;11.45;3.20;;;13.40;99.90;;;;;;5064281;28;20036;-70
2023/08/10 00:43:33;;;;;;;11.75;3.65;;;13.40;99.90;;;;;;5071546;28;20047;-64
2023/08/10 00:45:59;;;;;;;9.63;3.08;;;13.40;99.90;;;;;;5010086;28;20053;-69
2023/08/10 00:48:26;;;;;;;11.25;3.33;;;13.40;99.90;;;;;;5065708;28;20101;-65
2023/08/10 00:50:53;;;;;;;14.38;3.78;;;13.30;99.90;;;;;;5046182;28;20041;-67
2023/08/10 00:53:19;;;;;;;14.45;3.97;;;13.30;99.90;;;;;;5046288;28;20505;-66
2023/08/10 00:55:51;;;;;;;12.65;3.45;;;13.30;99.90;;;;;;5029498;28;20447;-65
2023/08/10 00:58:21;;;;;;;10.13;3.10;;;13.30;99.90;;;;;;5040665;28;20091;-68
2023/08/10 01:00:47;;;;;;;11.95;3.58;;;13.30;99.90;;;;;;5029665;28;20040;-68
2023/08/10 01:03:13;;;;;;;15.00;4.07;;;13.30;99.90;;;;;;5042203;28;20131;-65
2023/08/10 01:06:12;;;;;;;12.48;3.50;;;13.30;99.90;;;;;;5065904;28;20056;-65
2023/08/10 01:09:22;;;;;;;9.05;3.10;;;13.30;99.90;;;;;;5062235;28;20502;-65
2023/08/10 01:12:03;;;;;;;16.02;4.03;;;13.30;99.90;;;;;;5043541;28;20051;-66
2023/08/10 01:14:55;;;;;;;12.93;3.78;;;13.30;99.90;;;;;;5076371;28;20508;-66
2023/08/10 01:17:33;;;;;;;10.60;3.10;;;13.30;99.90;;;;;;5066029;28;20036;-66
2023/08/10 01:20:01;;;;;;;13.88;3.80;;;13.30;99.90;;;;;;5066217;28;20580;-68
2023/08/10 01:22:55;;;;;;;10.25;3.17;;;13.30;99.90;;;;;;5044591;28;20036;-68
2023/08/10 01:25:22;;;;;;;12.70;3.58;;;13.30;99.90;;;;;;5058359;28;20048;-67
2023/08/10 01:27:49;;;;;;;11.07;4.50;;;13.30;99.90;;;;;;5045364;28;20033;-68
2023/08/10 01:30:15;;;;;;;9.10;3.28;;;13.30;99.90;;;;;;5026102;28;20045;-67
2023/08/10 01:32:41;;;;;;;7.70;3.33;;;13.30;99.90;;;;;;5027128;28;20048;-67
2023/08/10 01:35:07;;;;;;;14.45;3.47;;;13.30;99.90;;;;;;5045515;28;20041;-67
2023/08/10 01:37:33;;;;;;;9.75;3.38;;;13.30;99.90;;;;;;5046745;28;20086;-69
2023/08/10 01:40:00;;;;;;;23.80;3.90;;;13.30;99.90;;;;;;5063259;28;20044;-67
2023/08/10 01:42:26;;;;;;;13.98;4.35;;;13.20;99.90;;;;;;5054152;28;20040;-68
2023/08/10 01:44:52;;;;;;;15.15;3.67;;;13.20;99.90;;;;;;5061577;28;20076;-68
2023/08/10 01:47:42;;;;;;;9.68;3.17;;;13.20;99.90;;;;;;5065293;28;20137;-68
2023/08/10 01:50:08;;;;;;;10.27;3.40;;;13.20;99.90;;;;;;5065186;28;20219;-67
2023/08/10 01:52:39;;;;;;;9.93;3.88;;;13.20;99.90;;;;;;5047328;28;20434;-67
2023/08/10 01:55:07;;;;;;;10.30;3.33;;;13.20;99.90;;;;;;5028886;28;20511;-68
2023/08/10 01:57:33;;;;;;;9.80;3.38;;;13.30;99.90;;;;;;5044869;28;20309;-68
2023/08/10 01:59:59;;;;;;;11.20;3.83;;;13.30;99.90;;;;;;5063905;28;20439;-70
2023/08/10 02:02:25;;;;;;;11.32;3.45;;;13.40;99.90;;;;;;5066243;28;20120;-67
2023/08/10 02:04:51;;;;;;;7.45;3.22;;;13.40;99.90;;;;;;5065124;28;20060;-67
2023/08/10 02:07:16;;;;;;;9.40;3.28;;;13.40;99.90;;;;;;5050940;28;20549;-67
2023/08/10 02:09:42;;;;;;;12.75;4.07;;;13.50;99.90;;;;;;5028614;28;20636;-66
2023/08/10 02:12:08;;;;;;;9.30;3.20;;;13.50;99.90;;;;;;5028078;28;20090;-66
2023/08/10 02:14:34;;;;;;;8.98;3.40;;;13.60;99.90;;;;;;5058624;28;20449;-67
2023/08/10 02:16:59;;;;;;;10.05;3.38;;;13.60;99.90;;;;;;5065182;28;20069;-67
2023/08/10 02:19:25;;;;;;;12.05;3.60;;;13.60;99.90;;;;;;5063331;28;20048;-66
2023/08/10 02:21:50;;;;;;;10.68;3.63;;;13.60;99.90;;;;;;5047982;28;20040;-65
2023/08/10 02:24:16;;;;;;;11.00;3.05;;;13.70;99.90;;;;;;5066111;28;20032;-66
2023/08/10 02:26:42;;;;;;;12.20;3.70;;;13.60;99.90;;;;;;5047935;28;20499;-66
2023/08/10 02:29:08;;;;;;;9.85;3.58;;;13.60;99.90;;;;;;5054583;28;20052;-66
2023/08/10 02:31:33;;;;;;;8.40;3.40;;;13.60;99.90;;;;;;5057340;28;20041;-65
2023/08/10 02:33:59;;;;;;;8.75;3.33;;;13.60;99.90;;;;;;5027757;28;20033;-66
2023/08/10 02:36:24;;;;;;;11.80;3.83;;;13.60;99.90;;;;;;5053158;28;20152;-67
2023/08/10 02:38:50;;;;;;;12.45;3.55;;;13.50;99.90;;;;;;5048014;28;20052;-66
2023/08/10 02:41:15;;;;;;;11.57;3.50;;;13.50;99.90;;;;;;5062916;28;20097;-65
2023/08/10 02:43:41;;;;;;;13.15;4.13;;;13.50;99.90;;;;;;5055435;28;20271;-68
2023/08/10 02:46:08;;;;;;;9.57;3.75;;;13.50;99.90;;;;;;5047394;28;20442;-67
2023/08/10 02:48:33;;;;;;;9.43;3.58;;;13.40;99.90;;;;;;5065437;28;20047;-67
2023/08/10 02:50:59;;;;;;;10.13;4.00;;;13.40;99.90;;;;;;5064051;28;20041;-67
2023/08/10 02:53:24;;;;;;;16.10;4.10;;;13.40;99.90;;;;;;5065813;28;20123;-67
2023/08/10 02:55:50;;;;;;;11.40;3.70;;;13.40;99.90;;;;;;5057721;28;20037;-67
2023/08/10 02:58:15;;;;;;;12.65;4.00;;;13.40;99.90;;;;;;5040771;28;20045;-66
2023/08/10 03:00:41;;;;;;;14.50;3.95;;;13.30;99.90;;;;;;5064146;28;20072;-67
2023/08/10 03:03:07;;;;;;;11.60;3.92;;;13.30;99.90;;;;;;5062332;28;20056;-69
2023/08/10 03:05:33;;;;;;;9.30;4.03;;;13.30;99.90;;;;;;5065384;28;20044;-73
2023/08/10 03:07:58;;;;;;;10.30;4.05;;;13.20;99.90;;;;;;5047131;28;20047;-70
2023/08/10 03:10:24;;;;;;;10.32;3.67;;;13.20;99.90;;;;;;5052649;28;20049;-71
2023/08/10 03:12:49;;;;;;;14.00;4.15;;;13.20;99.90;;;;;;5044478;28;20080;-68
2023/08/10 03:15:15;;;;;;;9.93;3.92;;;13.20;99.90;;;;;;5046901;28;20037;-66
2023/08/10 03:17:41;;;;;;;11.25;3.90;;;13.10;99.90;;;;;;5063540;28;20036;-68
2023/08/10 03:20:13;;;;;;;10.27;4.32;;;13.10;99.90;;;;;;5063697;28;20147;-66
2023/08/10 03:22:41;;;;;;;8.63;3.88;;;13.10;99.90;;;;;;5045224;28;20403;-66
2023/08/10 03:25:07;;;;;;;11.95;4.22;;;13.10;99.90;;;;;;5033327;28;20041;-69
2023/08/10 03:27:34;;;;;;;14.95;5.07;;;13.10;99.90;;;;;;5044739;28;20403;-67
2023/08/10 03:30:00;;;;;;;10.95;4.70;;;13.10;99.90;;;;;;5063584;28;20122;-67
2023/08/10 03:32:25;;;;;;;14.27;4.18;;;13.10;99.90;;;;;;5032212;28;20041;-67
2023/08/10 03:34:52;;;;;;;14.45;4.18;;;13.10;99.90;;;;;;5025346;28;20485;-67
2023/08/10 03:37:18;;;;;;;11.55;3.85;;;13.00;99.90;;;;;;5018948;28;20138;-65
2023/08/10 03:39:43;;;;;;;11.18;4.43;;;13.00;99.90;;;;;;5040629;28;20435;-70
2023/08/10 03:42:09;;;;;;;10.32;3.90;;;13.10;99.90;;;;;;5049368;28;20044;-66
2023/08/10 03:44:36;;;;;;;13.82;5.05;;;13.10;99.90;;;;;;5046175;28;20032;-74
2023/08/10 03:47:01;;;;;;;11.52;4.32;;;13.00;99.90;;;;;;5050667;28;20036;-67
2023/08/10 03:49:27;;;;;;;8.50;3.88;;;13.10;99.90;;;;;;5049291;28;20036;-68
2023/08/10 03:51:53;;;;;;;9.68;3.97;;;13.10;99.90;;;;;;5069020;28;20115;-68
2023/08/10 03:54:19;;;;;;;10.20;3.97;;;13.10;99.90;;;;;;5068956;28;20041;-68
2023/08/10 03:56:44;;;;;;;8.88;4.05;;;13.10;99.90;;;;;;5061697;28;20043;-68
2023/08/10 03:59:10;;;;;;;12.10;4.28;;;13.10;99.90;;;;;;5049072;28;20036;-68
2023/08/10 04:01:36;;;;;;;9.80;5.03;;;13.20;99.90;;;;;;5067194;28;20056;-68
2023/08/10 04:04:02;;;;;;;10.32;4.70;;;13.20;99.90;;;;;;5067469;28;20211;-68
2023/08/10 04:06:27;;;;;;;12.65;4.85;;;13.20;99.90;;;;;;5067118;28;20116;-68
2023/08/10 04:08:53;;;;;;;13.82;4.43;;;13.20;99.90;;;;;;5065580;28;20115;-68
2023/08/10 04:11:19;;;;;;;7.60;3.97;;;13.20;99.90;;;;;;5065184;28;20032;-70
2023/08/10 04:13:46;;;;;;;10.20;4.15;;;13.20;99.90;;;;;;5054131;28;20044;-68
2023/08/10 04:16:12;;;;;;;11.15;3.97;;;13.20;99.90;;;;;;5050356;28;20063;-68
2023/08/10 04:18:38;;;;;;;9.50;3.97;;;13.30;99.90;;;;;;5068680;28;20044;-70
2023/08/10 04:21:04;;;;;;;8.63;3.63;;;13.30;99.90;;;;;;5048147;28;20048;-69
2023/08/10 04:23:30;;;;;;;10.25;3.88;;;13.30;99.90;;;;;;5066983;28;20569;-68
2023/08/10 04:25:56;;;;;;;10.38;3.58;;;13.40;99.90;;;;;;5066601;28;20040;-67
2023/08/10 04:28:22;;;;;;;10.80;3.92;;;13.40;99.90;;;;;;5053354;28;20491;-67
2023/08/10 04:30:48;;;;;;;7.97;3.70;;;13.40;99.90;;;;;;5047881;28;20044;-69
2023/08/10 04:33:13;;;;;;;12.05;4.07;;;13.40;99.90;;;;;;5046851;28;20036;-68
2023/08/10 04:35:39;;;;;;;8.15;3.45;;;13.40;99.90;;;;;;5030347;28;20515;-69
2023/08/10 04:38:05;;;;;;;8.88;3.60;;;13.40;99.90;;;;;;5066721;28;20040;-68
2023/08/10 04:40:30;;;;;;;12.85;4.57;;;13.40;99.90;;;;;;5066791;28;20047;-68
2023/08/10 04:42:58;;;;;;;8.43;3.47;;;13.50;99.90;;;;;;5051444;28;20111;-70
2023/08/10 04:45:24;;;;;;;14.88;5.55;;;13.50;99.90;;;;;;5066419;28;20621;-68
2023/08/10 04:47:50;;;;;;;18.13;5.78;;;13.50;99.90;;;;;;5066381;28;20754;-68
2023/08/10 04:50:16;;;;;;;12.40;3.55;;;13.50;99.90;;;;;;5100212;28;20120;-68
2023/08/10 04:52:42;;;;;;;10.13;3.70;;;13.50;99.90;;;;;;5049629;28;20036;-68
2023/08/10 04:55:09;;;;;;;10.32;3.60;;;13.60;99.90;;;;;;5064494;28;20286;-69
2023/08/10 04:57:35;;;;;;;15.95;3.83;;;13.60;99.90;;;;;;5057104;28;20048;-69
2023/08/10 05:00:02;;;;;;;9.68;3.60;;;13.60;99.90;;;;;;5047213;28;20094;-71
2023/08/10 05:02:28;;;;;;;10.73;4.05;;;13.60;99.90;;;;;;5057194;28;20177;-68
2023/08/10 05:04:55;;;;;;;11.23;4.00;;;13.60;99.90;;;;;;5067525;28;20086;-68
2023/08/10 05:07:23;;;;;;;11.90;5.00;;;13.60;99.90;;;;;;5065841;28;20080;-68
2023/08/10 05:09:48;;;;;;;9.38;4.20;;;13.60;99.90;;;;;;5049717;28;20301;-68
2023/08/10 05:12:14;;;;;;;14.85;4.07;;;13.60;99.90;;;;;;5045004;28;20044;-69
2023/08/10 05:14:40;;;;;;;11.48;4.00;;;13.60;99.90;;;;;;5049943;28;20084;-69
2023/08/10 05:17:05;;;;;;;13.65;3.78;;;13.70;99.90;;;;;;5046009;28;20494;-67
2023/08/10 05:19:31;;;;;;;7.63;3.30;;;13.70;99.90;;;;;;5047567;28;20068;-69
2023/08/10 05:21:57;;;;;;;8.60;3.42;;;13.70;99.90;;;;;;5028997;28;20070;-68
2023/08/10 05:24:22;;;;;;;9.85;3.45;;;13.70;99.90;;;;;;5059724;28;20069;-67
2023/08/10 05:26:48;;;;;;;10.15;3.60;;;13.70;99.90;;;;;;5064160;28;20078;-70
2023/08/10 05:29:14;;;;;;;14.55;3.72;;;13.80;99.90;;;;;;5064580;28;20086;-67
2023/08/10 05:31:39;;;;;;;8.68;3.40;;;13.80;99.90;;;;;;5056219;28;20033;-69
2023/08/10 05:34:05;;;;;;;9.85;3.63;;;13.80;99.90;;;;;;5079386;28;20491;-68
2023/08/10 05:36:30;;;;;;;11.50;3.55;;;13.90;99.90;;;;;;5079160;28;20136;-69
2023/08/10 05:38:56;;;;;;;10.05;3.50;;;13.90;99.90;;;;;;5067058;28;20128;-68
2023/08/10 05:41:21;;;;;;;9.88;3.72;;;14.00;99.90;;;;;;5064059;28;20063;-69
2023/08/10 05:43:47;;;;;;;11.18;4.63;;;14.00;99.90;;;;;;5085789;28;20049;-69
2023/08/10 05:46:13;;;;;;;12.55;4.22;;;14.10;99.90;;;;;;5066828;28;20076;-71
2023/08/10 05:48:39;;;;;;;8.80;4.22;;;14.10;99.90;;;;;;5065727;28;20071;-68
2023/08/10 05:51:04;;;;;;;12.77;3.75;;;14.10;99.90;;;;;;5046012;28;20336;-69
2023/08/10 05:53:30;;;;;;;10.00;3.60;;;14.10;99.90;;;;;;5045202;28;20515;-68
2023/08/10 05:55:55;;;;;;;7.78;3.78;;;14.20;99.90;;;;;;5045025;28;20072;-68
2023/08/10 05:58:21;;;;;;;11.20;3.45;;;14.20;99.90;;;;;;5059558;28;20064;-68
2023/08/10 06:00:46;;;;;;;10.13;3.10;;;14.30;99.90;;;;;;5048817;28;20413;-68
2023/08/10 06:03:12;;;;;;;11.38;3.53;;;14.30;99.90;;;;;;5048269;28;20048;-68
2023/08/10 06:05:38;;;;;;;8.50;2.97;;;14.40;99.90;;;;;;5063694;28;20045;-69
2023/08/10 06:08:06;;;;;;;9.90;3.53;;;14.40;99.90;;;;;;5047910;28;20052;-68
2023/08/10 06:10:32;;;;;;;12.60;4.03;;;14.40;99.90;;;;;;5064995;28;20029;-68
2023/08/10 06:12:57;;;;;;;12.60;3.95;;;14.50;99.90;;;;;;5051056;28;20488;-68
2023/08/10 06:15:24;;;;;;;11.60;3.45;;;14.50;99.90;;;;;;5045304;28;20123;-69
2023/08/10 06:17:49;;;;;;;13.65;3.10;;;14.60;99.90;;;;;;5044802;28;20044;-68
2023/08/10 06:20:21;;;;;;;8.98;3.22;;;14.60;99.90;;;;;;5045027;28;20041;-67
2023/08/10 06:22:48;;;;;;;9.30;3.33;;;14.50;99.90;;;;;;5032002;28;20063;-68
2023/08/10 06:25:15;;;;;;;7.90;2.85;;;14.60;99.90;;;;;;5064443;28;20058;-68
2023/08/10 06:27:40;;;;;;;8.80;3.28;;;14.60;99.90;;;;;;5064362;28;20399;-70
2023/08/10 06:30:07;;;;;;;8.85;3.05;;;14.70;99.90;;;;;;5045087;28;20029;-68
2023/08/10 06:32:37;;;;;;;8.63;2.97;;;14.80;99.90;;;;;;5078135;28;20056;-67
2023/08/10 06:35:05;;;;;;;9.35;3.13;;;15.10;99.90;;;;;;5027878;28;20055;-68
2023/08/10 06:37:30;;;;;;;7.65;3.28;;;15.40;99.90;;;;;;5044641;28;20041;-69
2023/08/10 06:39:56;;;;;;;10.35;2.92;;;15.70;99.90;;;;;;5028098;28;20040;-67
2023/08/10 06:42:22;;;;;;;8.20;2.95;;;15.90;99.90;;;;;;5048971;28;20539;-68
2023/08/10 06:44:48;;;;;;;9.65;3.45;;;16.20;99.90;;;;;;5075812;28;20048;-68
2023/08/10 06:47:14;;;;;;;10.07;2.80;;;16.40;99.90;;;;;;5047673;28;20041;-68
2023/08/10 06:49:39;;;;;;;9.23;2.78;;;16.60;99.90;;;;;;5045299;28;20078;-69
2023/08/10 06:52:05;;;;;;;10.52;2.70;;;16.80;99.90;;;;;;5064094;28;20502;-68
2023/08/10 06:54:31;;;;;;;7.90;2.47;;;17.10;99.90;;;;;;5064266;28;20082;-69
2023/08/10 06:56:57;;;;;;;9.20;2.50;;;17.30;99.90;;;;;;5058420;28;20116;-67
2023/08/10 06:59:23;;;;;;;11.65;2.30;;;17.40;99.90;;;;;;5089048;28;20454;-66
2023/08/10 07:01:49;;;;;;;11.50;2.72;;;17.50;99.90;;;;;;5065447;28;20427;-69
2023/08/10 07:04:14;;;;;;;8.25;2.25;;;17.60;99.90;;;;;;5047262;28;20380;-69
2023/08/10 07:06:40;;;;;;;7.65;2.33;;;17.60;99.90;;;;;;5065089;28;20514;-66
2023/08/10 07:09:09;;;;;;;7.80;2.33;;;17.70;99.90;;;;;;5063883;28;20048;-66
2023/08/10 07:11:35;;;;;;;7.22;2.13;;;17.80;99.90;;;;;;5045406;28;20041;-70
2023/08/10 07:14:01;;;;;;;8.38;2.53;;;17.80;99.90;;;;;;5053708;28;20060;-67
2023/08/10 07:16:26;;;;;;;9.18;2.65;;;17.90;99.90;;;;;;5043841;28;20138;-68
2023/08/10 07:18:52;;;;;;;10.50;2.25;;;18.00;99.90;;;;;;5025999;28;20407;-70
2023/08/10 07:21:18;;;;;;;7.50;2.38;;;18.10;99.90;;;;;;5045017;28;20067;-67
2023/08/10 07:23:43;;;;;;;8.90;2.20;;;18.10;99.90;;;;;;5027609;28;20736;-69
2023/08/10 07:26:10;;;;;;;5.22;1.58;;;18.10;99.90;;;;;;5049049;28;20045;-66
2023/08/10 07:28:36;;;;;;;8.77;1.90;;;18.20;99.90;;;;;;5044301;28;20045;-68
2023/08/10 07:31:02;;;;;;;10.60;2.20;;;18.20;99.90;;;;;;5040939;28;20037;-68
2023/08/10 07:33:28;;;;;;;9.30;2.05;;;18.20;99.90;;;;;;5057231;28;20125;-69
2023/08/10 07:35:54;;;;;;;8.93;1.88;;;18.20;99.90;;;;;;5008352;28;20114;-66
2023/08/10 07:38:19;;;;;;;10.10;1.95;;;18.20;99.90;;;;;;5024009;28;20128;-68
2023/08/10 07:40:45;;;;;;;9.57;1.50;;;18.30;99.90;;;;;;5023723;28;20044;-69
2023/08/10 07:43:10;;;;;;;7.75;1.67;;;18.30;99.90;;;;;;5058963;28;21555;-66
2023/08/10 07:45:36;;;;;;;9.05;1.52;;;18.30;99.90;;;;;;5043492;28;20136;-68
2023/08/10 07:48:04;;;;;;;8.27;1.85;;;18.30;99.90;;;;;;5045301;28;20033;-67
2023/08/10 07:50:30;;;;;;;6.45;1.50;;;18.30;99.90;;;;;;5045013;28;20060;-73
2023/08/10 07:52:58;;;;;;;7.82;1.65;;;18.20;99.90;;;;;;5047374;28;20041;-63
2023/08/10 07:55:24;;;;;;;11.90;2.00;;;18.20;99.90;;;;;;5063629;28;20044;-66
2023/08/10 07:57:50;;;;;;;6.50;1.40;;;18.20;99.90;;;;;;5083746;28;20036;-66
2023/08/10 08:00:16;;;;;;;6.03;1.83;;;18.30;99.90;;;;;;5061769;28;20453;-68
2023/08/10 08:02:42;;;;;;;7.53;1.60;;;18.30;99.90;;;;;;5046383;28;20064;-68
2023/08/10 08:05:08;;;;;;;9.23;1.75;;;18.20;99.90;;;;;;5058867;28;20415;-68
2023/08/10 08:07:33;;;;;;;7.55;1.50;;;18.20;99.90;;;;;;5044878;28;20080;-67
2023/08/10 08:10:00;;;;;;;9.45;1.80;;;18.10;99.90;;;;;;5043485;28;20052;-67
2023/08/10 08:12:26;;;;;;;6.50;1.60;;;18.00;99.90;;;;;;5050370;28;20040;-67
2023/08/10 08:14:55;;;;;;;7.13;1.73;;;18.00;99.90;;;;;;5046189;28;20084;-71
2023/08/10 08:17:22;;;;;;;10.05;1.77;;;18.00;99.90;;;;;;5044882;28;20063;-69
2023/08/10 08:19:48;;;;;;;10.35;1.73;;;18.00;99.90;;;;;;5026724;28;20045;-68
2023/08/10 08:22:13;;;;;;;9.52;1.65;;;17.90;99.90;;;;;;5042807;28;20492;-66
2023/08/10 08:24:39;;;;;;;6.30;1.48;;;17.90;99.90;;;;;;5007250;28;20042;-67
2023/08/10 08:27:05;;;;;;;7.82;1.17;;;17.90;99.90;;;;;;5028530;28;20044;-64
2023/08/10 08:29:31;;;;;;;13.20;1.50;;;17.90;99.90;;;;;;5055743;28;20040;-65
2023/08/10 08:31:57;;;;;;;7.10;1.38;;;17.90;99.90;;;;;;5056001;28;20101;-71
2023/08/10 08:34:23;;;;;;;12.85;1.77;;;17.90;99.90;;;;;;5046230;28;20033;-68
2023/08/10 08:36:49;;;;;;;6.68;1.33;;;17.90;99.90;;;;;;5048173;28;20276;-69
2023/08/10 08:39:15;;;;;;;6.80;1.48;;;17.90;99.90;;;;;;5055947;28;20051;-66
2023/08/10 08:41:42;;;;;;;8.20;1.63;;;18.00;99.90;;;;;;5046623;28;20040;-65
2023/08/10 08:44:08;;;;;;;5.72;1.20;;;18.00;99.90;;;;;;5030191;28;20048;-70
2023/08/10 08:46:42;;;;;;;7.38;1.13;;;17.90;99.90;;;;;;5048168;28;20119;-65
2023/08/10 08:49:09;;;;;;;6.68;1.40;;;17.90;99.90;;;;;;5047035;28;20041;-66
2023/08/10 08:51:35;;;;;;;10.95;1.48;;;17.90;99.90;;;;;;5062180;28;20115;-66
2023/08/10 08:54:02;;;;;;;5.93;1.30;;;17.90;99.90;;;;;;5066511;28;20044;-66
2023/08/10 08:56:28;;;;;;;5.00;1.20;;;17.80;99.90;;;;;;5065152;28;20036;-64
2023/08/10 08:58:54;;;;;;;5.38;1.27;;;17.80;99.90;;;;;;5064630;28;20073;-68
2023/08/10 09:01:20;;;;;;;11.35;1.42;;;17.80;99.90;;;;;;5049679;28;20079;-66
2023/08/10 09:03:47;;;;;;;7.13;1.30;;;17.80;99.90;;;;;;5083340;28;20055;-68
2023/08/10 09:06:13;;;;;;;7.18;1.50;;;17.80;99.90;;;;;;5047464;28;20368;-68
2023/08/10 09:08:39;;;;;;;5.57;1.40;;;17.70;99.90;;;;;;5066502;28;20040;-66
2023/08/10 09:11:05;;;;;;;4.30;1.17;;;17.70;99.90;;;;;;5066153;28;20044;-65
2023/08/10 09:13:31;;;;;;;7.78;1.30;;;17.70;99.90;;;;;;5060441;28;20033;-70
2023/08/10 09:16:11;;;;;;;9.85;1.42;;;17.70;99.90;;;;;;5029466;28;20396;-68
2023/08/10 09:18:43;;;;;;;9.75;1.55;;;17.70;99.90;;;;;;5048875;28;20111;-66
2023/08/10 09:21:16;;;;;;;7.38;1.20;;;17.70;99.90;;;;;;5049418;28;20044;-66
2023/08/10 09:23:47;;;;;;;8.07;1.38;;;17.70;99.90;;;;;;5066256;28;20051;-67
2023/08/10 09:26:17;;;;;;;6.70;1.30;;;17.80;99.90;;;;;;5046886;28;20062;-68
2023/08/10 09:28:43;;;;;;;5.70;1.65;;;17.80;99.90;;;;;;5040472;28;20049;-65
2023/08/10 09:31:10;;;;;;;8.15;1.40;;;17.80;99.90;;;;;;5029102;28;20085;-66
2023/08/10 09:33:37;;;;;;;7.53;1.35;;;17.90;99.90;;;;;;5037165;28;20047;-68
2023/08/10 09:36:08;;;;;;;7.57;1.52;;;18.00;99.90;;;;;;5048822;28;20067;-67
2023/08/10 09:38:34;;;;;;;7.63;1.40;;;18.00;99.90;;;;;;5065808;28;20041;-69
2023/08/10 09:41:11;;;;;;;12.57;1.40;;;18.00;99.90;;;;;;5066622;28;20056;-68
2023/08/10 09:43:44;;;;;;;7.05;1.35;;;18.10;99.90;;;;;;5040110;28;20036;-68
2023/08/10 09:46:11;;;;;;;7.38;1.30;;;18.10;99.90;;;;;;5029077;28;20684;-65
2023/08/10 09:48:41;;;;;;;5.18;1.35;;;18.20;99.90;;;;;;5029195;28;20530;-67
2023/08/10 09:51:09;;;;;;;5.60;1.33;;;18.20;99.90;;;;;;5045844;28;20044;-65
2023/08/10 09:53:36;;;;;;;4.70;1.10;;;18.20;99.90;;;;;;5065828;28;20048;-66
2023/08/10 09:56:02;;;;;;;4.65;1.20;;;18.30;99.90;;;;;;5066608;28;20040;-70
2023/08/10 09:58:29;;;;;;;5.47;1.23;;;18.30;99.90;;;;;;5061078;28;20174;-65
2023/08/10 10:00:55;;;;;;;7.55;1.30;;;18.30;99.90;;;;;;5065187;28;20138;-69
2023/08/10 10:03:22;;;;;;;6.07;1.17;;;18.40;99.90;;;;;;5065143;28;20247;-67
2023/08/10 10:05:49;;;;;;;6.43;1.40;;;18.40;99.90;;;;;;5064716;28;20045;-66
2023/08/10 10:08:16;;;;;;;7.28;1.30;;;18.40;99.90;;;;;;5028483;28;20076;-66
2023/08/10 10:10:43;;;;;;;8.00;1.40;;;18.40;99.90;;;;;;5045198;28;20036;-67
2023/08/10 10:13:13;;;;;;;5.53;1.38;;;18.30;99.90;;;;;;5055476;28;20097;-67
2023/08/10 10:15:45;;;;;;;6.28;1.33;;;18.30;99.90;;;;;;5028397;28;20128;-67
2023/08/10 10:18:12;;;;;;;5.18;1.40;;;18.30;99.90;;;;;;5028203;28;20115;-66
2023/08/10 10:20:45;;;;;;;4.45;1.20;;;18.30;99.90;;;;;;5055300;28;20130;-67
2023/08/10 10:23:17;;;;;;;9.27;1.58;;;18.30;99.90;;;;;;5065444;28;20040;-66
2023/08/10 10:26:04;;;;;;;4.78;1.40;;;18.30;99.90;;;;;;5065238;28;20058;-67
2023/08/10 10:28:32;;;;;;;6.72;1.25;;;18.30;99.90;;;;;;5021734;28;20136;-64
2023/08/10 10:31:04;;;;;;;9.23;1.50;;;18.30;99.90;;;;;;5062220;28;20037;-67
2023/08/10 10:33:30;;;;;;;6.35;1.30;;;18.30;99.90;;;;;;5044240;28;20064;-66
2023/08/10 10:36:14;;;;;;;4.88;1.38;;;18.20;99.90;;;;;;5044404;28;20076;-64
2023/08/10 10:38:50;;;;;;;3.85;1.27;;;18.30;99.90;;;;;;5027965;28;20447;-67
2023/08/10 10:41:27;;;;;;;7.47;1.60;;;18.30;99.90;;;;;;5027579;28;20045;-67
2023/08/10 10:43:53;;;;;;;6.57;1.30;;;18.30;99.90;;;;;;5034153;28;20106;-71
2023/08/10 10:46:35;;;;;;;8.82;1.48;;;18.40;99.90;;;;;;5066041;28;20037;-70
2023/08/10 10:49:21;;;;;;;4.93;1.20;;;18.40;99.90;;;;;;5041185;28;20035;-67
2023/08/10 10:51:59;;;;;;;5.57;1.40;;;18.40;99.90;;;;;;5043985;28;20048;-68
2023/08/10 10:54:27;;;;;;;5.85;1.73;;;18.50;99.90;;;;;;5078090;28;20575;-64
2023/08/10 10:56:54;;;;;;;7.50;1.33;;;18.50;99.90;;;;;;5053588;28;20120;-68
2023/08/10 10:59:21;;;;;;;5.05;1.13;;;18.50;99.90;;;;;;5045678;28;20133;-67
2023/08/10 11:01:48;;;;;;;6.25;1.30;;;18.40;99.90;;;;;;5044276;28;20061;-69
2023/08/10 11:04:13;;;;;;;5.38;1.40;;;18.40;99.90;;;;;;5045546;28;20548;-66
2023/08/10 11:06:39;;;;;;;7.35;1.30;;;18.40;99.90;;;;;;5043775;28;20206;-64
2023/08/10 11:09:07;;;;;;;9.73;2.72;;;18.50;99.90;;;;;;5044122;28;20563;-66
2023/08/10 11:11:33;;;;;;;5.70;1.58;;;18.50;99.90;;;;;;5042387;28;20407;-68
2023/08/10 11:13:59;;;;;;;6.40;1.40;;;18.40;99.90;;;;;;5067840;28;20111;-67
2023/08/10 11:16:25;;;;;;;6.95;1.50;;;18.50;99.90;;;;;;5063953;28;20131;-65
2023/08/10 11:18:53;;;;;;;6.72;1.30;;;18.50;99.90;;;;;;5063843;28;20558;-66
2023/08/10 11:21:22;;;;;;;9.70;1.50;;;18.50;99.90;;;;;;5062541;28;20119;-67
2023/08/10 11:23:48;;;;;;;7.05;1.75;;;18.60;99.90;;;;;;5065264;28;20052;-69
2023/08/10 11:26:14;;;;;;;8.52;1.45;;;18.70;99.90;;;;;;5063644;28;20048;-68
2023/08/10 11:28:40;;;;;;;7.22;1.65;;;18.70;99.90;;;;;;5058605;28;20115;-65
2023/08/10 11:31:07;;;;;;;7.35;1.73;;;18.70;99.90;;;;;;5054433;28;20055;-69
2023/08/10 11:33:33;;;;;;;7.18;1.50;;;18.70;99.90;;;;;;5040410;28;20048;-65
2023/08/10 11:35:59;;;;;;;7.30;1.63;;;18.70;99.90;;;;;;5039134;28;20396;-74
2023/08/10 11:38:25;;;;;;;8.43;1.63;;;18.70;99.90;;;;;;5043305;28;20404;-65
2023/08/10 11:40:51;;;;;;;9.80;1.65;;;18.60;99.90;;;;;;5043551;28;20041;-66
2023/08/10 11:43:19;;;;;;;5.25;1.60;;;18.60;99.90;;;;;;5055157;28;20049;-66
2023/08/10 11:45:46;;;;;;;9.65;2.05;;;18.60;99.90;;;;;;5027303;28;20552;-64
2023/08/10 11:48:17;;;;;;;6.30;1.60;;;18.70;99.90;;;;;;5079684;28;20045;-65
2023/08/10 11:50:43;;;;;;;4.55;1.40;;;18.70;99.90;;;;;;5049842;28;20037;-64
2023/08/10 11:53:14;;;;;;;8.75;1.70;;;18.60;99.90;;;;;;5044749;28;20052;-68
2023/08/10 11:55:51;;;;;;;8.18;1.42;;;18.70;99.90;;;;;;5042797;28;20048;-65
2023/08/10 11:58:19;;;;;;;11.43;1.77;;;18.70;99.90;;;;;;5053477;28;20182;-66
2023/08/10 12:00:49;;;;;;;10.02;1.83;;;18.70;99.90;;;;;;5043489;28;20037;-64
2023/08/10 12:03:16;;;;;;;5.07;1.58;;;18.80;99.90;;;;;;5026448;28;20122;-68
2023/08/10 12:05:47;;;;;;;6.68;1.67;;;18.80;99.90;;;;;;5045008;28;20544;-66
2023/08/10 12:08:16;;;;;;;11.18;2.10;;;18.80;99.90;;;;;;5047459;28;20036;-64
2023/08/10 12:10:51;;;;;;;8.18;1.73;;;18.90;99.90;;;;;;5047749;28;20428;-66
2023/08/10 12:13:19;;;;;;;7.38;1.77;;;18.90;99.90;;;;;;5048737;28;20545;-65
2023/08/10 12:15:51;;;;;;;7.55;1.63;;;18.90;99.90;;;;;;5047582;28;20037;-66
2023/08/10 12:18:19;;;;;;;5.43;1.70;;;19.00;99.90;;;;;;5080850;28;20052;-64
2023/08/10 12:20:47;;;;;;;7.93;2.13;;;19.00;99.90;;;;;;5048860;28;20520;-65
2023/08/10 12:23:13;;;;;;;7.75;1.67;;;18.90;99.90;;;;;;5052344;28;20486;-66
2023/08/10 12:25:44;;;;;;;7.38;1.98;;;18.90;99.90;;;;;;5050400;28;20051;-67
2023/08/10 12:28:10;;;;;;;9.88;1.83;;;19.00;99.90;;;;;;5063483;28;20539;-65
2023/08/10 12:30:37;;;;;;;4.75;2.05;;;18.90;99.90;;;;;;5065796;28;20071;-64
2023/08/10 12:33:03;;;;;;;10.13;2.17;;;19.00;99.90;;;;;;5028223;28;20037;-67
2023/08/10 12:35:28;;;;;;;8.38;2.00;;;19.00;99.90;;;;;;5063321;28;20040;-67
2023/08/10 12:37:54;;;;;;;9.40;2.05;;;19.00;99.90;;;;;;5055871;28;20531;-65
2023/08/10 12:40:21;;;;;;;7.40;1.98;;;19.00;99.90;;;;;;5068591;28;20051;-67
2023/08/10 12:42:48;;;;;;;7.93;1.80;;;19.00;99.90;;;;;;5064379;28;20093;-64
2023/08/10 12:45:14;;;;;;;5.93;1.92;;;19.00;99.90;;;;;;5047872;28;20029;-64